createdAt,value
2023-03-03T00:03:02.006Z,4.4
2023-03-03T00:18:04.009Z,8.8
2023-03-03T00:33:05.932Z,8.8
2023-03-03T00:48:07.836Z,8.8
2023-03-03T01:03:09.784Z,4.4
2023-03-03T01:18:11.766Z,2.2
2023-03-03T01:33:13.716Z,0
2023-03-03T01:48:15.710Z,0
2023-03-03T02:03:17.693Z,0
2023-03-03T02:18:19.606Z,0
2023-03-03T02:33:21.496Z,0
2023-03-03T02:48:23.368Z,0
2023-03-03T03:03:25.307Z,0
2023-03-03T03:18:27.249Z,0
2023-03-03T03:33:29.245Z,0
2023-03-03T03:48:31.191Z,0
2023-03-03T04:03:33.155Z,0
2023-03-03T04:18:35.126Z,0
2023-03-03T04:33:37.103Z,0
2023-03-03T04:48:39.031Z,0
2023-03-03T05:03:40.972Z,0
2023-03-03T05:18:43.110Z,0
2023-03-03T05:33:45.135Z,0
2023-03-03T05:48:47.040Z,0
2023-03-03T06:03:48.973Z,0
2023-03-03T06:18:50.893Z,0
2023-03-03T06:33:52.866Z,0
2023-03-03T06:48:54.835Z,0
2023-03-03T07:03:56.840Z,0
2023-03-03T07:18:58.871Z,0
2023-03-03T07:34:00.904Z,0
2023-03-03T07:49:02.831Z,0
2023-03-03T08:04:04.860Z,0
2023-03-03T08:19:06.802Z,0
2023-03-03T08:34:08.758Z,0
2023-03-03T08:49:10.932Z,0
2023-03-03T09:04:12.944Z,0
2023-03-03T09:19:14.928Z,0
2023-03-03T09:34:16.829Z,0
2023-03-03T09:49:18.736Z,0
2023-03-03T10:04:20.743Z,0
2023-03-03T10:19:22.711Z,0
2023-03-03T10:34:24.648Z,0
2023-03-03T10:49:26.621Z,0
2023-03-03T11:04:28.550Z,0
2023-03-03T11:19:30.600Z,0
2023-03-03T11:34:32.566Z,0
2023-03-03T11:49:34.567Z,0
2023-03-03T12:04:36.496Z,0
2023-03-03T12:19:38.393Z,0
2023-03-03T12:34:40.307Z,0
2023-03-03T12:49:44.146Z,0
2023-03-03T13:04:47.047Z,0
2023-03-03T13:19:49.018Z,0
2023-03-03T13:34:50.988Z,0
2023-03-03T13:49:52.889Z,0
2023-03-03T14:04:54.770Z,0
2023-03-03T14:19:56.766Z,0
2023-03-03T14:34:58.882Z,2.2
2023-03-03T14:50:00.809Z,2.2
2023-03-03T15:05:02.769Z,4.4
2023-03-03T15:20:06.429Z,8.8
2023-03-03T15:35:08.508Z,13.2
2023-03-03T15:50:10.378Z,17.6
2023-03-03T16:05:12.335Z,15.4
2023-03-03T16:20:14.237Z,22
2023-03-03T16:35:16.113Z,28.6
2023-03-03T16:50:18.053Z,39.6
2023-03-03T17:05:20.017Z,44
2023-03-03T17:20:21.919Z,44
2023-03-03T17:35:24.023Z,46.2
2023-03-03T17:50:25.947Z,35.2
2023-03-03T18:05:27.846Z,44
2023-03-03T18:20:29.941Z,44
2023-03-03T18:35:31.886Z,57.2
2023-03-03T18:50:33.947Z,48.4
2023-03-03T19:05:35.838Z,63.8
2023-03-03T19:20:37.776Z,92.4
2023-03-03T19:35:39.783Z,92.4
2023-03-03T19:50:41.680Z,140.8
2023-03-03T20:05:43.582Z,63.8
2023-03-03T20:20:45.514Z,92.4
2023-03-03T20:35:47.481Z,103.4
2023-03-03T20:50:49.564Z,74.8
2023-03-03T21:05:51.543Z,70.4
2023-03-03T21:20:53.672Z,37.4
2023-03-03T21:35:55.582Z,37.4
2023-03-03T21:50:57.528Z,35.2
2023-03-03T22:05:59.473Z,46.2
2023-03-03T22:21:01.430Z,30.8
2023-03-03T22:36:03.362Z,63.8
2023-03-03T22:51:05.297Z,356.4
2023-03-03T23:06:07.196Z,299.2
2023-03-03T23:21:09.184Z,303.6
2023-03-03T23:36:11.151Z,343.2
2023-03-03T23:51:13.093Z,59.4
